Aérodrome :
LOGIN :

S'inscrire | Disclaimer

   EN    FR    IT 

 










Légende :    VFR   VFR Marginal   IFR   IFR Intensif   IFR Très Intensif
Visi : 
Plafond : 
>= 8 km
>= 3000ft
5 à 8 km
1000 à 3000 ft
1500m à 5 km
500 à 1000 ft
800 à 1500m
200 à 500 ft
< 800m
< 200 ft
Symboles :   Orages  Brouillard  Fortes neiges  Fortes précipitations  Vent > 20 kt
SIGMETs :   Divers  Orages  Givrage  Turbulence  Onde Orograph.  Cendres Volcan.







- Altitude de l'aérodrome : 140 ft
- Code IATA : NYO


ESKN - Skavsta

DERNIER METAR :
  • 260020Z 00000KT 9999 BCFG NSC 14/13 Q1024

METARs EXPIRÉS :
  • 252350Z 00000KT CAVOK 15/15 Q1024
  • 252320Z 22001KT CAVOK 15/14 Q1024
  • 252250Z 11001KT CAVOK 15/14 Q1024
  • 252220Z VRB02KT CAVOK 16/15 Q1024
  • 252150Z VRB03KT CAVOK 15/15 Q1024
  • 252120Z 19003KT CAVOK 16/15 Q1024

TAF TAF ESKN
Valide du 26 à 00h jusqu'au 27 à 00h UTC


252330Z 2600/2624 VRB02KT CAVOK
PROB40 2602/2605 2000 BR
BECMG 2611/2613 17010KT
Pas de NOTAMs connus pour ce terrain.



MET'MAP, la Météo Aéronautique d'un coup d'oeil ! - Copyright ORBIFLY Décembre 2007 - Disclaimer

ORBIFLY MET'MAP TEAM :

Programmation & Développement : Alexandra Zaïnal
Conception & Développement : Baudouin d'Aumeries
Co-Programmation & Développement : Marc-Olivier Méhu
Soutien technique & logistique : Manuel Goepfert

Contact : metmap@orbifly.com




SOURCES & CREDITS :

   NOAA